Bookmark and Share
Track history (hours):
 

Vn Rebel _

Last reported at 2014-Apr-22 12:16 UTC. Time now 2014-Apr-24 02:05 UTC.
Position N 42°59' E 006°31'.

Length 45 m; draft 2.4 m.

MMSI: 247010300.

NotesDate/timePositionNaut miles runAvg speedWind from/ knotsBaromVisibWave heightAir tempDewpointWater temp
2014-Apr-22 12:16N 42°59' E 006°31'6 8.2
2014-Apr-22 11:33N 42°59' E 006°23'8 8.2
2014-Apr-22 10:33N 43°02' E 006°13'8 7.9
2014-Apr-22 09:33N 43°02' E 006°02'7 7.0
2014-Apr-22 08:33N 43°07' E 005°55'0 0.0
2014-Apr-22 07:33N 43°07' E 005°55'  
2014-Apr-17 15:32N 43°07' E 005°55'0 0.0
2014-Apr-17 14:32N 43°07' E 005°55'1 0.5
2014-Apr-17 13:33N 43°07' E 005°55'0 0.1
2014-Apr-17 12:34N 43°07' E 005°55'0 0.1
2014-Apr-17 11:32N 43°07' E 005°55'1 0.4
2014-Apr-17 10:16N 43°07' E 005°55'0 0.7
2014-Apr-17 09:32N 43°07' E 005°55'0 0.0
2014-Apr-17 08:32N 43°07' E 005°55'0 0.4
2014-Apr-17 07:33N 43°07' E 005°55'1 0.5
2014-Apr-17 06:34N 43°07' E 005°55'1 0.0
2014-Apr-16 16:04N 43°07' E 005°55'2 3.8
2014-Apr-16 15:33N 43°05' E 005°56'3 3.1
2014-Apr-16 14:32N 43°06' E 006°00'0 0.3
2014-Apr-16 13:33N 43°05' E 006°00'2 1.6
2014-Apr-16 12:33N 43°04' E 006°01'3 2.7
2014-Apr-16 11:33N 43°03' E 006°05'3 3.4
2014-Apr-16 10:33N 43°01' E 006°01'5 4.7
2014-Apr-16 09:33N 43°05' E 005°57'2 0.3
2014-Apr-16 00:20N 43°07' E 005°55'3 3.7
2014-Apr-15 23:34N 43°05' E 005°58'9 9.4
2014-Apr-15 22:34N 42°60' E 006°09'9 9.3
2014-Apr-15 21:34N 42°58' E 006°21'9 9.2
2014-Apr-15 20:33N 42°58' E 006°34'9 9.3
2014-Apr-15 19:34N 42°57' E 006°46'17 0.8
2014-Apr-14 23:32N 42°50' E 007°07'6 6.1
2014-Apr-14 22:33N 42°48' E 006°59'8 7.7
2014-Apr-14 21:34N 42°45' E 006°49'16 7.9
2014-Apr-14 19:34N 42°40' E 006°29'8 8.4
2014-Apr-14 18:34N 42°46' E 006°20'7 7.1
2014-Apr-14 17:34N 42°49' E 006°12'6 3.0
2014-Apr-14 15:34N 42°44' E 006°08'2 1.7
2014-Apr-14 14:34N 42°43' E 006°10'4 4.5
2014-Apr-14 13:34N 42°48' E 006°08'14 7.2
2014-Apr-14 11:34N 43°01' E 006°00'7 7.3
2014-Apr-14 10:33N 43°07' E 005°55'  

Dump ship's entire track history

sailing weather and tide predictions

Vn Rebel _ — ILBR — position and weather